Time;durP1;ratioP1;P1;durP2;ratioP2;P2;SDS_P1;SDS_P2;PMS_P1;PMS_P2;Temp;Humidity;BMP_temperature;BMP_pressure;BME280_temperature;BME280_humidity;BME280_pressure;Samples;Min_cycle;Max_cycle;Signal;HPM_P1;HPM_P2
2023/09/21 00:00:21;;;;;;;2.78;1.70;;;17.30;99.90;;;;;;5057966;28;20031;-78
2023/09/21 00:02:51;;;;;;;6.85;1.55;;;17.30;99.90;;;;;;5058657;28;20032;-78
2023/09/21 00:05:21;;;;;;;3.03;1.58;;;17.30;99.90;;;;;;5058435;28;20031;-78
2023/09/21 00:07:47;;;;;;;4.03;1.97;;;17.40;99.90;;;;;;5076305;28;20028;-78
2023/09/21 00:10:13;;;;;;;3.70;1.80;;;17.30;99.90;;;;;;5058013;28;20524;-78
2023/09/21 00:12:40;;;;;;;3.05;1.42;;;17.30;99.90;;;;;;5058562;28;20056;-78
2023/09/21 00:15:06;;;;;;;4.85;1.70;;;17.20;99.90;;;;;;5057518;28;20512;-78
2023/09/21 00:17:37;;;;;;;4.10;1.88;;;17.20;99.90;;;;;;5058256;28;20035;-78
2023/09/21 00:20:21;;;;;;;2.88;1.80;;;17.20;99.90;;;;;;5075915;28;20036;-79
2023/09/21 00:22:47;;;;;;;5.13;1.55;;;17.20;99.90;;;;;;5076030;28;20064;-78
2023/09/21 00:25:14;;;;;;;3.42;1.45;;;17.30;99.90;;;;;;5075510;28;20029;-79
2023/09/21 00:27:40;;;;;;;3.28;1.50;;;17.20;99.90;;;;;;5075790;28;20024;-79
2023/09/21 00:30:06;;;;;;;4.78;1.58;;;17.20;99.90;;;;;;5057478;28;20145;-79
2023/09/21 00:32:39;;;;;;;4.75;1.40;;;17.20;99.90;;;;;;5058591;28;20098;-78
2023/09/21 00:35:09;;;;;;;5.25;1.52;;;17.20;99.90;;;;;;5058487;28;20020;-79
2023/09/21 00:37:36;;;;;;;4.55;1.73;;;17.20;99.90;;;;;;5058213;28;20123;-78
2023/09/21 00:40:05;;;;;;;1.95;1.17;;;17.20;99.90;;;;;;5076284;28;20501;-80
2023/09/21 00:42:30;;;;;;;2.25;1.13;;;17.20;99.90;;;;;;5076137;28;20024;-79
2023/09/21 00:44:56;;;;;;;3.17;1.50;;;17.20;99.90;;;;;;5058314;28;20029;-78
2023/09/21 00:47:21;;;;;;;3.03;1.45;;;17.30;99.90;;;;;;5075282;28;20020;-79
2023/09/21 00:49:47;;;;;;;2.15;1.13;;;17.30;99.90;;;;;;5075687;28;20040;-78
2023/09/21 00:52:13;;;;;;;3.22;1.48;;;17.30;99.90;;;;;;5075467;28;20053;-78
2023/09/21 00:54:41;;;;;;;3.05;1.45;;;17.30;99.90;;;;;;5057948;28;20032;-78
2023/09/21 00:57:08;;;;;;;3.10;1.50;;;17.20;99.90;;;;;;5057417;28;20029;-78
2023/09/21 00:59:39;;;;;;;2.85;1.40;;;17.30;99.90;;;;;;5058166;28;20029;-78
2023/09/21 01:02:05;;;;;;;2.28;1.45;;;17.20;99.90;;;;;;5056472;28;20382;-79
2023/09/21 01:04:31;;;;;;;5.57;1.52;;;17.20;99.90;;;;;;5057711;28;20079;-78
2023/09/21 01:06:56;;;;;;;2.47;1.35;;;17.10;99.90;;;;;;5057802;28;20028;-79
2023/09/21 01:09:25;;;;;;;4.88;1.35;;;17.10;99.90;;;;;;5074556;28;20037;-79
2023/09/21 01:11:51;;;;;;;3.00;1.45;;;17.10;99.90;;;;;;5075615;28;20539;-79
2023/09/21 01:14:16;;;;;;;3.08;1.40;;;17.20;99.90;;;;;;5074918;28;20028;-79
2023/09/21 01:16:42;;;;;;;2.80;1.50;;;17.20;99.90;;;;;;5075070;28;20021;-78
2023/09/21 01:19:08;;;;;;;2.67;1.42;;;17.30;99.90;;;;;;5056837;28;20031;-79
2023/09/21 01:21:37;;;;;;;3.20;1.70;;;17.20;99.90;;;;;;5057496;28;20480;-79
2023/09/21 01:24:03;;;;;;;3.53;1.65;;;17.20;99.90;;;;;;5056640;28;20064;-79
2023/09/21 01:26:29;;;;;;;3.15;1.30;;;17.20;99.90;;;;;;5057043;28;20024;-78
2023/09/21 01:28:56;;;;;;;3.13;1.42;;;17.20;99.90;;;;;;5073400;28;20029;-78
2023/09/21 01:31:22;;;;;;;3.45;1.30;;;17.20;99.90;;;;;;5073154;28;20055;-78
2023/09/21 01:33:48;;;;;;;2.17;1.30;;;17.30;99.90;;;;;;5057019;28;20060;-78
2023/09/21 01:36:15;;;;;;;1.77;1.20;;;17.30;99.90;;;;;;5073333;28;20031;-79
2023/09/21 01:38:44;;;;;;;4.07;1.45;;;17.30;99.90;;;;;;5056753;28;20024;-79
2023/09/21 01:41:09;;;;;;;4.18;1.50;;;17.30;99.90;;;;;;5073381;28;20028;-79
2023/09/21 01:43:35;;;;;;;2.78;1.30;;;17.30;99.90;;;;;;5057054;28;20031;-78
2023/09/21 01:46:01;;;;;;;3.80;1.40;;;17.30;99.90;;;;;;5056948;28;20025;-78
2023/09/21 01:48:27;;;;;;;6.93;1.10;;;17.30;99.90;;;;;;5073309;28;20185;-78
2023/09/21 01:50:57;;;;;;;4.25;1.23;;;17.30;99.90;;;;;;5073152;28;20481;-78
2023/09/21 01:53:23;;;;;;;1.77;1.25;;;17.30;99.90;;;;;;5073335;28;20024;-78
2023/09/21 01:55:50;;;;;;;3.17;1.52;;;17.30;99.90;;;;;;5073516;28;20024;-78
2023/09/21 01:58:17;;;;;;;2.85;1.50;;;17.30;99.90;;;;;;5056912;28;20060;-79
2023/09/21 02:00:46;;;;;;;1.58;1.13;;;17.40;99.90;;;;;;5056731;28;20078;-79
2023/09/21 02:03:13;;;;;;;3.67;1.48;;;17.40;99.90;;;;;;5074478;28;20404;-79
2023/09/21 02:05:42;;;;;;;3.65;1.50;;;17.40;99.90;;;;;;5056427;28;20462;-78
2023/09/21 02:08:11;;;;;;;1.65;1.15;;;17.40;99.90;;;;;;5073757;28;20020;-79
2023/09/21 02:10:38;;;;;;;2.35;1.40;;;17.50;99.90;;;;;;5074385;28;20078;-78
2023/09/21 02:13:07;;;;;;;2.17;1.42;;;17.50;99.90;;;;;;5072430;28;20040;-81
2023/09/21 02:15:34;;;;;;;2.40;1.55;;;17.60;99.90;;;;;;5056263;28;20024;-78
2023/09/21 02:18:02;;;;;;;3.33;1.23;;;17.60;99.90;;;;;;5074132;28;20024;-79
2023/09/21 02:20:29;;;;;;;2.70;1.27;;;17.50;99.90;;;;;;5055991;28;20128;-79
2023/09/21 02:23:00;;;;;;;3.05;1.30;;;17.50;99.90;;;;;;5055977;28;20025;-79
2023/09/21 02:25:30;;;;;;;2.90;1.40;;;17.50;99.90;;;;;;5072593;28;20021;-79
2023/09/21 02:27:56;;;;;;;3.75;1.02;;;17.40;99.90;;;;;;5072660;28;20032;-79
2023/09/21 02:30:24;;;;;;;2.70;1.15;;;17.50;99.90;;;;;;5055774;28;20423;-79
2023/09/21 02:32:55;;;;;;;4.88;1.55;;;17.50;99.90;;;;;;5055866;28;20032;-79
2023/09/21 02:35:23;;;;;;;4.43;1.48;;;17.60;99.90;;;;;;5071710;28;20033;-79
2023/09/21 02:37:50;;;;;;;2.83;1.20;;;17.70;99.90;;;;;;5072487;28;20229;-79
2023/09/21 02:40:19;;;;;;;2.42;1.23;;;17.70;99.90;;;;;;5054502;28;20489;-79
2023/09/21 02:42:49;;;;;;;2.30;1.17;;;17.70;99.90;;;;;;5056007;28;20029;-79
2023/09/21 02:45:16;;;;;;;2.83;1.30;;;17.80;99.90;;;;;;5072344;28;20024;-79
2023/09/21 02:47:42;;;;;;;1.75;1.27;;;17.70;99.90;;;;;;5056231;28;20027;-79
2023/09/21 02:50:20;;;;;;;4.30;1.40;;;17.70;99.90;;;;;;5073399;28;20048;-81
2023/09/21 02:52:56;;;;;;;3.85;1.40;;;17.70;99.90;;;;;;5074195;28;20112;-79
2023/09/21 02:55:24;;;;;;;2.55;1.30;;;17.80;99.90;;;;;;5055818;28;20025;-78
2023/09/21 02:57:58;;;;;;;3.47;1.40;;;17.70;99.90;;;;;;5074079;28;20052;-78
2023/09/21 03:03:04;;;;;;;6.05;1.60;;;17.80;99.90;;;;;;5074329;28;20431;-79
2023/09/21 03:05:33;;;;;;;2.65;1.17;;;17.90;99.90;;;;;;5055607;28;20116;-79
2023/09/21 03:08:05;;;;;;;2.40;1.30;;;17.80;99.90;;;;;;5072725;28;20031;-78
2023/09/21 03:10:31;;;;;;;3.60;1.33;;;17.80;99.90;;;;;;5055546;28;20508;-79
2023/09/21 03:12:57;;;;;;;4.28;1.40;;;17.80;99.90;;;;;;5073913;28;20031;-78
2023/09/21 03:15:22;;;;;;;2.33;1.30;;;17.70;99.90;;;;;;5055171;28;20074;-79
2023/09/21 03:17:53;;;;;;;3.17;1.30;;;17.70;99.90;;;;;;5073203;28;20029;-79
2023/09/21 03:20:34;;;;;;;4.00;1.38;;;17.70;99.90;;;;;;5055366;28;20052;-78
2023/09/21 03:23:09;;;;;;;2.20;1.20;;;17.80;99.90;;;;;;5074225;28;20073;-78
2023/09/21 03:25:40;;;;;;;2.25;1.30;;;17.80;99.90;;;;;;5059032;28;20025;-79
2023/09/21 03:28:10;;;;;;;2.13;1.27;;;17.80;99.90;;;;;;5059978;28;20039;-79
2023/09/21 03:30:38;;;;;;;3.20;1.30;;;17.80;99.90;;;;;;5076993;28;20500;-78
2023/09/21 03:33:05;;;;;;;2.88;1.33;;;17.80;99.90;;;;;;5077122;28;20108;-78
2023/09/21 03:35:31;;;;;;;3.30;1.30;;;17.80;99.90;;;;;;5076232;28;20020;-79
2023/09/21 03:37:57;;;;;;;2.00;1.10;;;17.80;99.90;;;;;;5059458;28;20031;-80
2023/09/21 03:40:25;;;;;;;3.03;1.40;;;17.70;99.90;;;;;;5076453;28;20024;-80
2023/09/21 03:42:52;;;;;;;4.13;1.33;;;17.70;99.90;;;;;;5059520;28;20048;-80
2023/09/21 03:45:20;;;;;;;2.47;1.73;;;17.70;99.90;;;;;;5075384;28;20123;-80
2023/09/21 03:47:45;;;;;;;1.95;1.20;;;17.80;99.90;;;;;;5076867;28;20023;-80
2023/09/21 03:50:12;;;;;;;1.50;1.00;;;17.70;99.90;;;;;;5074934;28;20029;-80
2023/09/21 03:52:38;;;;;;;1.98;1.20;;;17.70;99.90;;;;;;5076548;28;20461;-79
2023/09/21 03:55:04;;;;;;;1.75;1.10;;;17.70;99.90;;;;;;5059277;28;20044;-79
2023/09/21 03:57:30;;;;;;;2.95;1.20;;;17.60;99.90;;;;;;5075154;28;20477;-80
2023/09/21 03:59:57;;;;;;;3.35;1.65;;;17.60;99.90;;;;;;5077207;28;20495;-80
2023/09/21 04:02:24;;;;;;;2.25;1.15;;;17.60;99.90;;;;;;5058703;28;20025;-80
2023/09/21 04:04:51;;;;;;;3.03;1.27;;;17.60;99.90;;;;;;5058829;28;20028;-79
2023/09/21 04:07:17;;;;;;;2.50;1.40;;;17.60;99.90;;;;;;5076176;28;20422;-80
2023/09/21 04:09:44;;;;;;;2.80;1.30;;;17.70;99.90;;;;;;5075346;28;20036;-79
2023/09/21 04:12:10;;;;;;;1.73;1.10;;;17.70;99.90;;;;;;5076384;28;20078;-79
2023/09/21 04:14:36;;;;;;;3.63;1.20;;;17.70;99.90;;;;;;5076201;28;20017;-79
2023/09/21 04:17:02;;;;;;;2.65;1.00;;;17.70;99.90;;;;;;5075220;28;20441;-80
2023/09/21 04:19:28;;;;;;;1.85;1.30;;;17.70;99.90;;;;;;5075907;28;20048;-80
2023/09/21 04:21:54;;;;;;;2.05;1.13;;;17.70;99.90;;;;;;5058634;28;20021;-80
2023/09/21 04:24:20;;;;;;;2.47;1.30;;;17.60;99.90;;;;;;5074839;28;20016;-80
2023/09/21 04:26:45;;;;;;;2.30;1.33;;;17.60;99.90;;;;;;5075556;28;20021;-79
2023/09/21 04:29:15;;;;;;;3.10;1.15;;;17.60;99.90;;;;;;5074954;28;20117;-79
2023/09/21 04:31:41;;;;;;;3.47;1.10;;;17.60;99.90;;;;;;5075502;28;20074;-79
2023/09/21 04:34:07;;;;;;;2.92;1.38;;;17.60;99.90;;;;;;5075972;28;20028;-79
2023/09/21 04:36:32;;;;;;;1.88;1.08;;;17.60;99.90;;;;;;5074637;28;20024;-79
2023/09/21 04:38:59;;;;;;;2.38;1.50;;;17.60;99.90;;;;;;5074906;28;20035;-79
2023/09/21 04:41:27;;;;;;;3.13;1.30;;;17.60;99.90;;;;;;5076070;28;20056;-78
2023/09/21 04:43:53;;;;;;;2.85;1.42;;;17.60;99.90;;;;;;5075207;28;20082;-79
2023/09/21 04:46:20;;;;;;;2.92;1.30;;;17.60;99.90;;;;;;5075438;28;20099;-79
2023/09/21 04:48:45;;;;;;;1.60;1.10;;;17.60;99.90;;;;;;5074707;28;20046;-79
2023/09/21 04:51:12;;;;;;;2.75;1.23;;;17.60;99.90;;;;;;5071384;28;20045;-79
2023/09/21 04:53:39;;;;;;;3.85;1.40;;;17.60;99.90;;;;;;5055497;28;20163;-79
2023/09/21 04:56:04;;;;;;;3.60;1.45;;;17.60;99.90;;;;;;5055022;28;20021;-79
2023/09/21 04:58:30;;;;;;;3.70;1.30;;;17.60;99.90;;;;;;5054960;28;20025;-79
2023/09/21 05:00:55;;;;;;;2.05;1.20;;;17.60;99.90;;;;;;5055967;28;20021;-79
2023/09/21 05:03:21;;;;;;;4.00;1.60;;;17.60;99.90;;;;;;5054047;28;20053;-79
2023/09/21 05:05:47;;;;;;;4.28;1.80;;;17.60;99.90;;;;;;5055784;28;20020;-80
2023/09/21 05:08:13;;;;;;;4.25;1.30;;;17.60;99.90;;;;;;5053978;28;20017;-78
2023/09/21 05:10:41;;;;;;;4.18;1.27;;;17.60;99.90;;;;;;5055616;28;20053;-78
2023/09/21 05:13:07;;;;;;;2.85;1.27;;;17.60;99.90;;;;;;5053723;28;20033;-79
2023/09/21 05:15:32;;;;;;;2.25;1.30;;;17.70;99.90;;;;;;5054850;28;20099;-79
2023/09/21 05:17:58;;;;;;;3.05;1.30;;;17.60;99.90;;;;;;5054133;28;20017;-79
2023/09/21 05:20:23;;;;;;;2.75;1.73;;;17.60;99.90;;;;;;5053900;28;20028;-80
2023/09/21 05:22:51;;;;;;;3.03;1.63;;;17.60;99.90;;;;;;5054348;28;20043;-79
2023/09/21 05:25:16;;;;;;;2.40;1.40;;;17.70;99.90;;;;;;5054634;28;20392;-80
2023/09/21 05:27:42;;;;;;;1.48;1.10;;;17.70;99.90;;;;;;5054048;28;20021;-80
2023/09/21 05:30:11;;;;;;;4.00;1.40;;;17.70;99.90;;;;;;5054991;28;20084;-80
2023/09/21 05:32:37;;;;;;;3.33;1.80;;;17.70;99.90;;;;;;5053508;28;20133;-79
2023/09/21 05:35:05;;;;;;;2.67;1.42;;;17.70;99.90;;;;;;5053996;28;20078;-79
2023/09/21 05:37:30;;;;;;;4.13;1.60;;;17.70;99.90;;;;;;5053270;28;20116;-79
2023/09/21 05:39:56;;;;;;;3.55;1.58;;;17.70;99.90;;;;;;5054769;28;20126;-79
2023/09/21 05:42:23;;;;;;;4.18;1.30;;;17.70;99.90;;;;;;5054145;28;20029;-79
2023/09/21 05:44:49;;;;;;;3.08;1.30;;;17.80;99.90;;;;;;5053748;28;20481;-79
2023/09/21 05:47:15;;;;;;;2.42;1.50;;;17.70;99.90;;;;;;5053986;28;20071;-79
2023/09/21 05:49:43;;;;;;;2.13;1.48;;;17.70;99.90;;;;;;5052355;28;20032;-79
2023/09/21 05:52:11;;;;;;;1.85;1.23;;;17.70;99.90;;;;;;5073458;28;20062;-79
2023/09/21 05:54:38;;;;;;;3.58;1.38;;;17.80;99.90;;;;;;5072752;28;20028;-79
2023/09/21 05:57:03;;;;;;;4.38;1.50;;;17.70;99.90;;;;;;5074227;28;20070;-78
2023/09/21 05:59:31;;;;;;;3.22;1.70;;;17.80;99.90;;;;;;5055737;28;20032;-78
2023/09/21 06:01:57;;;;;;;2.95;1.40;;;17.80;99.90;;;;;;5072738;28;20120;-79
2023/09/21 06:04:24;;;;;;;2.47;1.27;;;17.90;99.90;;;;;;5055111;28;20024;-78
2023/09/21 06:06:58;;;;;;;2.30;1.50;;;17.90;99.90;;;;;;5055275;28;20025;-78
2023/09/21 06:09:24;;;;;;;3.80;1.48;;;17.80;99.90;;;;;;5052802;28;20062;-78
2023/09/21 06:11:50;;;;;;;2.75;1.40;;;17.80;99.90;;;;;;5055286;28;20458;-78
2023/09/21 06:14:20;;;;;;;2.08;1.42;;;17.80;99.90;;;;;;5055400;28;20052;-79
2023/09/21 06:16:45;;;;;;;2.88;1.42;;;17.70;99.90;;;;;;5055506;28;20029;-78
2023/09/21 06:19:12;;;;;;;2.88;1.60;;;17.80;99.90;;;;;;5055108;28;20036;-78
2023/09/21 06:21:39;;;;;;;2.80;1.42;;;17.80;99.90;;;;;;5073203;28;20322;-77
2023/09/21 06:24:06;;;;;;;4.10;1.27;;;17.80;99.90;;;;;;5054981;28;20028;-78
2023/09/21 06:26:32;;;;;;;5.32;1.85;;;17.80;99.90;;;;;;5054277;28;20024;-79
2023/09/21 06:28:59;;;;;;;2.95;1.52;;;17.90;99.90;;;;;;5054709;28;20043;-79
2023/09/21 06:31:24;;;;;;;3.10;1.30;;;17.80;99.90;;;;;;5054268;28;20086;-78
2023/09/21 06:33:50;;;;;;;5.57;1.70;;;17.90;99.90;;;;;;5073124;28;20052;-78
2023/09/21 06:36:20;;;;;;;4.55;1.50;;;17.90;99.90;;;;;;5072568;28;20389;-79
2023/09/21 06:38:47;;;;;;;4.57;2.45;;;18.00;99.90;;;;;;5055579;28;20454;-80
2023/09/21 06:41:13;;;;;;;5.10;1.90;;;18.10;99.90;;;;;;5055699;28;20041;-78
2023/09/21 06:43:42;;;;;;;3.72;1.55;;;18.10;99.90;;;;;;5073144;28;20458;-78
2023/09/21 06:46:09;;;;;;;2.88;1.83;;;18.10;99.90;;;;;;5073509;28;20025;-78
2023/09/21 06:48:34;;;;;;;3.88;1.73;;;18.20;99.90;;;;;;5054882;28;20041;-80
2023/09/21 06:51:00;;;;;;;4.63;1.85;;;18.20;99.90;;;;;;5073526;28;20045;-79
2023/09/21 06:53:28;;;;;;;4.45;2.00;;;18.20;99.90;;;;;;5055105;28;20042;-78
2023/09/21 06:55:55;;;;;;;3.75;1.90;;;18.20;99.90;;;;;;5055919;28;20029;-78
2023/09/21 06:58:21;;;;;;;3.03;1.58;;;18.30;99.90;;;;;;5055086;28;20020;-80
2023/09/21 07:00:47;;;;;;;4.18;1.92;;;18.30;99.90;;;;;;5065944;28;20537;-78
2023/09/21 07:03:13;;;;;;;2.25;1.60;;;18.30;99.90;;;;;;5084426;28;20052;-77
2023/09/21 07:05:40;;;;;;;5.20;1.80;;;18.40;99.90;;;;;;5054559;28;20017;-80
2023/09/21 07:08:06;;;;;;;5.63;1.80;;;18.40;99.90;;;;;;5060793;28;20036;-79
2023/09/21 07:10:32;;;;;;;2.75;1.75;;;18.40;99.90;;;;;;5081497;28;20500;-79
2023/09/21 07:12:58;;;;;;;4.63;1.90;;;18.40;99.90;;;;;;5064247;28;20090;-79
2023/09/21 07:15:24;;;;;;;3.22;2.00;;;18.50;99.90;;;;;;5079971;28;20020;-81
2023/09/21 07:17:50;;;;;;;5.80;1.92;;;18.50;99.90;;;;;;5082604;28;20043;-77
2023/09/21 07:20:23;;;;;;;7.65;2.45;;;18.50;99.90;;;;;;5084736;28;20028;-80
2023/09/21 07:22:52;;;;;;;4.20;1.85;;;18.50;99.90;;;;;;5076946;28;20020;-80
2023/09/21 07:25:17;;;;;;;2.45;1.80;;;18.60;99.90;;;;;;5066071;28;20032;-80
2023/09/21 07:27:44;;;;;;;3.60;2.22;;;18.50;99.90;;;;;;5084152;28;20239;-78
2023/09/21 07:30:10;;;;;;;8.10;1.65;;;18.50;99.90;;;;;;5082868;28;20060;-78
2023/09/21 07:32:35;;;;;;;10.35;2.20;;;18.60;99.90;;;;;;5071263;28;20036;-78
2023/09/21 07:35:06;;;;;;;9.73;2.10;;;18.60;99.90;;;;;;5071044;28;20031;-78
2023/09/21 07:37:34;;;;;;;19.77;3.03;;;18.70;99.90;;;;;;5066917;28;20462;-77
2023/09/21 07:40:06;;;;;;;12.70;2.88;;;18.70;99.90;;;;;;5089853;28;20028;-77
2023/09/21 07:42:33;;;;;;;14.23;2.47;;;18.90;99.90;;;;;;5082896;28;20032;-78
2023/09/21 07:44:59;;;;;;;13.48;2.70;;;18.90;99.90;;;;;;5087351;28;20024;-77
2023/09/21 07:47:26;;;;;;;6.35;1.92;;;19.00;99.90;;;;;;5065754;28;20051;-78
2023/09/21 07:49:54;;;;;;;10.02;2.17;;;19.00;99.90;;;;;;5068000;28;20389;-80
2023/09/21 07:52:24;;;;;;;5.20;1.55;;;19.10;99.90;;;;;;5082830;28;20464;-80
2023/09/21 07:54:50;;;;;;;5.57;2.08;;;19.10;99.90;;;;;;5063004;28;20464;-80
2023/09/21 07:57:16;;;;;;;6.65;1.58;;;19.00;99.90;;;;;;5086866;28;20036;-79
2023/09/21 07:59:42;;;;;;;8.85;1.80;;;19.10;99.90;;;;;;5084229;28;20024;-79
2023/09/21 08:02:09;;;;;;;6.28;1.70;;;19.10;99.90;;;;;;5064063;28;20074;-79
2023/09/21 08:04:36;;;;;;;6.40;1.70;;;19.10;99.90;;;;;;5075765;28;20483;-77
2023/09/21 08:07:05;;;;;;;4.78;1.67;;;19.10;99.90;;;;;;5063785;28;20116;-79
2023/09/21 08:09:31;;;;;;;4.72;1.70;;;19.10;99.90;;;;;;5068859;28;20047;-78
2023/09/21 08:11:56;;;;;;;3.20;1.80;;;19.10;99.90;;;;;;5063796;28;20032;-78
2023/09/21 08:14:23;;;;;;;6.72;1.90;;;19.10;99.90;;;;;;5078083;28;20074;-82
2023/09/21 08:16:50;;;;;;;5.85;1.73;;;19.10;99.90;;;;;;5080536;28;20446;-79
2023/09/21 08:19:15;;;;;;;4.13;1.52;;;19.20;99.90;;;;;;5061030;28;20032;-78
2023/09/21 08:21:41;;;;;;;4.82;1.60;;;19.30;99.90;;;;;;5079267;28;20625;-79
2023/09/21 08:24:09;;;;;;;5.18;1.90;;;19.40;99.90;;;;;;5065677;28;20448;-78
2023/09/21 08:26:35;;;;;;;2.65;1.73;;;19.40;99.90;;;;;;5082563;28;20462;-78
2023/09/21 08:29:01;;;;;;;5.00;1.85;;;19.50;99.90;;;;;;5055394;28;20036;-81
2023/09/21 08:31:27;;;;;;;2.50;1.52;;;19.50;99.90;;;;;;5059745;28;20028;-79
2023/09/21 08:33:53;;;;;;;4.43;1.95;;;19.60;99.90;;;;;;5086802;28;20032;-78
2023/09/21 08:36:19;;;;;;;3.05;1.58;;;19.60;99.90;;;;;;5086398;28;20032;-78
2023/09/21 08:38:45;;;;;;;4.00;1.80;;;19.60;99.90;;;;;;5079140;28;20028;-78
2023/09/21 08:41:11;;;;;;;4.70;2.25;;;19.60;99.90;;;;;;5060145;28;20488;-79
2023/09/21 08:43:38;;;;;;;5.07;1.90;;;19.60;99.90;;;;;;5070297;28;20028;-78
2023/09/21 08:46:04;;;;;;;3.22;1.60;;;19.70;99.90;;;;;;5072003;28;20032;-78
2023/09/21 08:48:31;;;;;;;3.17;1.60;;;19.70;99.90;;;;;;5059052;28;20047;-79
2023/09/21 08:51:01;;;;;;;2.50;1.40;;;19.80;99.90;;;;;;5064228;28;20041;-80
2023/09/21 08:53:27;;;;;;;6.60;2.25;;;19.90;99.90;;;;;;5073053;28;20028;-82
2023/09/21 08:55:57;;;;;;;7.28;2.03;;;19.90;99.90;;;;;;5079257;28;20029;-78
2023/09/21 08:58:24;;;;;;;5.55;1.65;;;20.00;99.90;;;;;;5082917;28;20035;-81
2023/09/21 09:00:54;;;;;;;3.40;1.70;;;20.00;99.90;;;;;;5078124;28;20108;-79
2023/09/21 09:03:21;;;;;;;2.55;1.70;;;20.10;99.90;;;;;;5078312;28;20095;-78
2023/09/21 09:05:47;;;;;;;4.88;1.60;;;20.10;99.90;;;;;;5078636;28;20056;-78
2023/09/21 09:08:13;;;;;;;4.07;1.50;;;20.10;99.90;;;;;;5082411;28;20063;-79
2023/09/21 09:10:42;;;;;;;3.67;1.60;;;20.20;99.90;;;;;;5061483;28;20035;-80
2023/09/21 09:13:08;;;;;;;6.43;1.60;;;20.20;99.90;;;;;;5062408;28;20465;-78
2023/09/21 09:15:36;;;;;;;3.40;1.50;;;20.20;99.90;;;;;;5081694;28;20070;-79
2023/09/21 09:18:03;;;;;;;4.25;1.55;;;20.30;99.90;;;;;;5065930;28;20031;-78
2023/09/21 09:20:29;;;;;;;4.00;1.40;;;20.40;99.90;;;;;;5064139;28;20493;-79
2023/09/21 09:22:55;;;;;;;2.72;1.40;;;20.40;99.90;;;;;;5063903;28;20023;-78
2023/09/21 09:25:21;;;;;;;3.35;1.55;;;20.40;99.90;;;;;;5076692;28;20166;-78
2023/09/21 09:27:47;;;;;;;6.32;1.23;;;20.60;99.90;;;;;;5064868;28;20025;-79
2023/09/21 09:30:13;;;;;;;2.80;1.58;;;20.60;99.90;;;;;;5078741;28;20032;-83
2023/09/21 09:32:42;;;;;;;1.83;1.33;;;20.70;99.90;;;;;;5079024;28;20147;-81
2023/09/21 09:35:13;;;;;;;3.50;1.40;;;20.80;99.90;;;;;;5079705;28;20033;-80
2023/09/21 09:37:40;;;;;;;3.50;1.35;;;20.80;99.90;;;;;;5059564;28;20142;-80
2023/09/21 09:40:09;;;;;;;3.03;1.50;;;20.90;99.90;;;;;;5066829;28;20135;-81
2023/09/21 09:42:43;;;;;;;3.17;1.40;;;21.00;99.90;;;;;;5066824;28;20035;-78
2023/09/21 09:45:18;;;;;;;5.63;1.60;;;21.10;99.90;;;;;;5063915;28;20028;-78
2023/09/21 09:47:50;;;;;;;2.25;1.15;;;21.10;99.90;;;;;;5081253;28;20494;-78
2023/09/21 09:50:20;;;;;;;2.72;1.35;;;21.10;99.90;;;;;;5063883;28;20059;-77
2023/09/21 09:52:50;;;;;;;3.90;1.30;;;21.10;99.90;;;;;;5084507;28;20023;-79
2023/09/21 09:55:22;;;;;;;2.70;1.05;;;21.10;99.90;;;;;;5060317;28;20110;-79
2023/09/21 09:57:52;;;;;;;4.15;1.45;;;21.20;99.90;;;;;;5059496;28;20028;-79
2023/09/21 10:00:22;;;;;;;3.15;1.23;;;21.30;99.90;;;;;;5066032;28;20036;-78
2023/09/21 10:02:49;;;;;;;2.03;1.65;;;21.30;99.90;;;;;;5061542;28;20033;-78
2023/09/21 10:05:20;;;;;;;4.85;1.30;;;21.30;99.90;;;;;;5064242;28;20036;-79
2023/09/21 10:07:49;;;;;;;6.40;1.27;;;21.30;99.90;;;;;;5063437;28;20028;-78
2023/09/21 10:10:20;;;;;;;5.25;1.50;;;21.40;99.90;;;;;;5075977;28;20060;-79
2023/09/21 10:12:52;;;;;;;3.15;1.10;;;21.40;99.90;;;;;;5060965;28;20116;-82
2023/09/21 10:15:22;;;;;;;3.38;1.45;;;21.40;99.90;;;;;;5060181;28;20033;-78
2023/09/21 10:17:50;;;;;;;3.10;1.27;;;21.50;99.90;;;;;;5076635;28;20107;-79
2023/09/21 10:20:25;;;;;;;4.93;1.80;;;21.50;99.90;;;;;;5061360;28;20043;-80
2023/09/21 10:22:52;;;;;;;2.60;1.73;;;21.50;99.90;;;;;;5063056;28;20029;-79
2023/09/21 10:25:35;;;;;;;3.83;1.50;;;21.50;99.90;;;;;;5064802;28;20111;-78
2023/09/21 10:28:22;;;;;;;5.25;1.50;;;21.60;99.90;;;;;;5059633;28;20032;-78
2023/09/21 10:30:51;;;;;;;3.40;1.67;;;21.70;99.90;;;;;;5059137;28;20691;-79
2023/09/21 10:33:18;;;;;;;3.33;1.20;;;21.70;99.90;;;;;;5063826;28;20038;-81
2023/09/21 10:35:45;;;;;;;2.47;1.00;;;21.90;99.90;;;;;;5059857;28;20062;-80
2023/09/21 10:38:17;;;;;;;3.15;1.33;;;21.90;99.90;;;;;;5086681;28;20028;-80
2023/09/21 10:40:43;;;;;;;1.75;1.20;;;22.00;99.90;;;;;;5081481;28;20025;-81
2023/09/21 10:43:37;;;;;;;3.33;1.40;;;22.10;99.90;;;;;;5081871;28;20071;-80
2023/09/21 10:46:23;;;;;;;2.22;1.35;;;22.20;99.90;;;;;;5063552;28;20024;-79
2023/09/21 10:49:07;;;;;;;2.40;1.20;;;22.20;99.90;;;;;;5062214;28;20290;-80
2023/09/21 10:51:34;;;;;;;3.25;1.33;;;22.20;99.90;;;;;;5063590;28;20043;-80
2023/09/21 10:54:00;;;;;;;3.55;1.58;;;22.30;99.90;;;;;;5079157;28;20028;-80
2023/09/21 10:56:26;;;;;;;5.05;1.58;;;22.30;99.90;;;;;;5079570;28;20029;-80
2023/09/21 10:58:52;;;;;;;2.75;1.45;;;22.40;99.90;;;;;;5057665;28;20033;-81
2023/09/21 11:01:22;;;;;;;3.00;1.10;;;22.40;99.90;;;;;;5066888;28;20036;-78
2023/09/21 11:03:48;;;;;;;4.35;1.50;;;22.50;99.90;;;;;;5062252;28;20033;-79
2023/09/21 11:06:16;;;;;;;3.22;1.20;;;22.60;99.90;;;;;;5073115;28;20031;-79
2023/09/21 11:08:42;;;;;;;6.75;1.35;;;22.70;99.90;;;;;;5059151;28;20041;-80
2023/09/21 11:11:08;;;;;;;4.05;1.25;;;22.80;99.90;;;;;;5058285;28;20085;-79
2023/09/21 11:13:33;;;;;;;4.38;1.20;;;22.90;99.90;;;;;;5075647;28;20028;-80
2023/09/21 11:15:59;;;;;;;3.53;1.50;;;22.90;99.90;;;;;;5074876;28;21481;-79
2023/09/21 11:18:28;;;;;;;2.75;1.30;;;22.90;99.90;;;;;;5075569;28;20442;-79
2023/09/21 11:20:56;;;;;;;2.30;1.38;;;22.80;99.90;;;;;;5075705;28;20071;-79
2023/09/21 11:23:22;;;;;;;4.15;1.40;;;22.80;99.90;;;;;;5061298;28;20052;-79
2023/09/21 11:25:49;;;;;;;2.58;1.65;;;22.90;99.90;;;;;;5055217;28;20052;-79
2023/09/21 11:28:19;;;;;;;6.32;1.83;;;23.00;99.90;;;;;;5058432;28;20020;-78
2023/09/21 11:30:45;;;;;;;4.25;1.35;;;23.00;99.90;;;;;;5081878;28;20051;-78
2023/09/21 11:33:12;;;;;;;6.63;1.33;;;23.10;99.90;;;;;;5082408;28;20032;-79
2023/09/21 11:35:38;;;;;;;5.32;1.67;;;23.20;99.90;;;;;;5077275;28;20028;-80
2023/09/21 11:38:04;;;;;;;5.30;1.50;;;23.30;99.90;;;;;;5059917;28;20027;-79
2023/09/21 11:40:31;;;;;;;6.47;1.90;;;23.40;99.90;;;;;;5060406;28;20078;-84
2023/09/21 11:42:59;;;;;;;4.45;1.40;;;23.50;99.90;;;;;;5057362;28;20115;-79
2023/09/21 11:45:25;;;;;;;2.40;1.40;;;23.60;99.90;;;;;;5077834;28;20461;-79
2023/09/21 11:47:56;;;;;;;5.18;1.17;;;23.60;99.90;;;;;;5064947;28;20020;-80
2023/09/21 11:50:33;;;;;;;3.92;1.08;;;23.60;99.90;;;;;;5081940;28;20051;-79
2023/09/21 11:53:00;;;;;;;2.92;1.00;;;23.70;99.90;;;;;;5080511;28;20032;-79
2023/09/21 11:55:30;;;;;;;1.25;0.60;;;23.60;99.90;;;;;;5079863;28;20488;-79
2023/09/21 11:58:14;;;;;;;1.27;0.57;;;23.60;99.90;;;;;;5064990;28;20063;-80
2023/09/21 12:01:12;;;;;;;1.88;0.90;;;23.60;99.90;;;;;;5067521;28;20055;-79
2023/09/21 12:03:37;;;;;;;2.97;0.88;;;23.60;99.90;;;;;;5076298;28;20028;-79
2023/09/21 12:06:03;;;;;;;2.97;1.30;;;23.50;99.90;;;;;;5080115;28;20021;-80
2023/09/21 12:08:29;;;;;;;3.55;0.80;;;23.50;99.90;;;;;;5062540;28;20028;-83
2023/09/21 12:10:55;;;;;;;1.38;0.70;;;23.50;99.90;;;;;;5082711;28;20036;-82
2023/09/21 12:13:21;;;;;;;4.63;0.70;;;23.60;99.90;;;;;;5078448;28;20032;-81
2023/09/21 12:15:47;;;;;;;2.20;0.70;;;23.60;99.90;;;;;;5061133;28;20028;-82
2023/09/21 12:18:13;;;;;;;1.48;0.70;;;23.70;99.90;;;;;;5086063;28;20123;-82
2023/09/21 12:20:44;;;;;;;2.35;0.60;;;23.70;99.90;;;;;;5085296;28;20108;-82
2023/09/21 12:23:12;;;;;;;1.48;0.73;;;23.80;99.80;;;;;;5063633;28;20070;-81
2023/09/21 12:25:38;;;;;;;3.47;1.02;;;23.70;99.90;;;;;;5084049;28;20036;-82
2023/09/21 12:28:04;;;;;;;1.38;0.85;;;23.60;99.90;;;;;;5083101;28;20079;-82
2023/09/21 12:30:29;;;;;;;2.67;0.68;;;23.60;99.90;;;;;;5080881;28;20025;-84
2023/09/21 12:32:56;;;;;;;2.75;0.73;;;23.60;99.90;;;;;;5079073;28;20390;-80
2023/09/21 12:35:25;;;;;;;2.42;0.80;;;23.70;99.90;;;;;;5062023;28;20167;-79
2023/09/21 12:37:51;;;;;;;5.05;1.20;;;23.70;99.90;;;;;;5080514;28;20126;-82
2023/09/21 12:40:17;;;;;;;26.95;12.13;;;23.70;99.90;;;;;;5084042;28;20024;-79
2023/09/21 12:42:43;;;;;;;14.00;6.50;;;23.70;99.90;;;;;;5070223;28;20701;-80
2023/09/21 12:45:16;;;;;;;10.40;4.55;;;23.90;99.90;;;;;;5065904;28;20086;-80
2023/09/21 12:47:42;;;;;;;4.82;2.40;;;24.00;99.90;;;;;;5078278;28;20021;-82
2023/09/21 12:50:09;;;;;;;1.38;1.00;;;24.10;99.90;;;;;;5067734;28;20119;-79